Freedom of the Seas — C6UZ7 — position and weather

sailwx.info

Track history (hours):
 
Tides and Currents Weather Stations Pressure Air Temp Water Temp Dewpoint Dewpoint Depression Visibility Wind Speed Wind Dir Waves Ship Positions

Freedom of the Seas

Last reported at 2018-Feb-23 10:00 UTC. Time now 2018-Feb-23 22:08 UTC.
Position N 20°06' W 071°06'.

Length 339 m; draft 9 m.

Type: Passenger vessel. MMSI: 309906000.

Wind from 090 at 22 knots

Barometer 1021.0 mb
Air temperature 25.0 ° C
Visibility: greater than 10.8 NM
Dewpoint 25.0 ° C
Water temperature 25.0 ° C

Date/timePositionNaut miles runAvg speedWind from/ knotsBaromVisibWave heightAir tempDewpointWater temp
2018-Feb-23 10:00N 20°06' W 071°06'45113.1 090 / 221021.010.8 25.025.025.0
2018-Feb-21 23:32N 18°02' W 063°27'116.0
2018-Feb-21 23:29N 18°02' W 063°26'1115.8
2018-Feb-21 22:48N 18°01' W 063°15'715.9
2018-Feb-21 22:23N 18°00' W 063°08'512.3
2018-Feb-21 21:59N 18°01' W 063°03'0 0.1
2018-Feb-21 21:20N 18°01' W 063°03'0 0.0
2018-Feb-21 20:53N 18°01' W 063°03'0 0.0
2018-Feb-21 19:50N 18°01' W 063°03'0 0.0
2018-Feb-21 19:20N 18°01' W 063°03'0 0.0
2018-Feb-21 18:53N 18°01' W 063°03'0 0.0
2018-Feb-21 18:08N 18°01' W 063°03'0 0.0
2018-Feb-21 17:41N 18°01' W 063°03'0 0.0
2018-Feb-21 17:20N 18°01' W 063°03'0 0.0
2018-Feb-21 16:56N 18°01' W 063°03'0 0.0
2018-Feb-21 16:08N 18°01' W 063°03'0 0.0
2018-Feb-21 15:44N 18°01' W 063°03'0 0.0
2018-Feb-21 15:29N 18°01' W 063°03'0 0.0
2018-Feb-21 14:56N 18°01' W 063°03'0 0.0
2018-Feb-21 13:41N 18°01' W 063°03'0 0.0
2018-Feb-21 13:29N 18°01' W 063°03'0 0.0
2018-Feb-21 12:59N 18°01' W 063°03'0 0.0
2018-Feb-21 12:26N 18°01' W 063°03'0 0.2
2018-Feb-21 11:53N 18°01' W 063°03'1 3.0
2018-Feb-21 11:27N 18°00' W 063°04'4 6.8
2018-Feb-21 10:53N 17°57' W 063°06'3 8.6
2018-Feb-21 10:30N 17°54' W 063°06'5 8.5
2018-Feb-21 09:58N 17°49' W 063°06'4 8.5
2018-Feb-21 09:29N 17°45' W 063°06'1020.8
2018-Feb-21 09:00N 17°36' W 063°00'71619.9 070 / 321020.010.8 24.024.024.0
2018-Feb-21 08:59N 17°41' W 063°05'5 8.6
2018-Feb-21 08:27N 17°36' W 063°05'4 9.1
2018-Feb-21 07:59N 17°32' W 063°05'30 4.4
2018-Feb-21 01:09N 17°04' W 062°52'24 1.8
2018-Feb-20 11:50N 17°27' W 063°02'617.5
2018-Feb-20 11:30N 17°32' W 063°05'1217.2
2018-Feb-20 10:47N 17°42' W 063°13'617.9
2018-Feb-20 10:28N 17°47' W 063°16'917.8
2018-Feb-20 09:59N 17°54' W 063°21'817.8
2018-Feb-20 09:30N 18°00' W 063°27'917.5
2018-Feb-20 09:00N 18°07' W 063°33'39716.5
2018-Feb-19 09:00N 21°48' W 069°24'47418.9 070 / 241021.010.8 24.024.024.0
2018-Feb-18 08:00N 25°42' W 076°54'14920.4 050 / 81023.010.8 23.023.023.0
2018-Feb-18 00:40N 26°11' W 079°36'320.1
2018-Feb-18 00:30N 26°11' W 079°40'1020.2
2018-Feb-18 00:00N 26°09' W 079°51'918.3
2018-Feb-17 23:30N 26°07' W 080°01'510.4
2018-Feb-17 23:00N 26°06' W 080°07'1 1.3
2018-Feb-17 22:29N 26°05' W 080°07'0 0.0
2018-Feb-17 21:59N 26°05' W 080°07'0 0.0
2018-Feb-17 21:29N 26°05' W 080°07'0 0.0
2018-Feb-17 20:59N 26°05' W 080°07'0 0.0
2018-Feb-17 20:29N 26°05' W 080°07'0 0.0
2018-Feb-17 19:59N 26°05' W 080°07'0 0.0
2018-Feb-17 19:29N 26°05' W 080°07'0 0.0
2018-Feb-17 18:59N 26°05' W 080°07'0 0.0
2018-Feb-17 18:29N 26°05' W 080°07'0 0.0
2018-Feb-17 17:59N 26°05' W 080°07'0 0.0
2018-Feb-17 17:29N 26°05' W 080°07'0 0.0
2018-Feb-17 16:59N 26°05' W 080°07'0 0.0
2018-Feb-17 16:29N 26°05' W 080°07'0 0.0
2018-Feb-17 15:59N 26°05' W 080°07'0 0.0
2018-Feb-17 15:29N 26°05' W 080°07'0 0.0
2018-Feb-17 14:59N 26°05' W 080°07'0 0.0
2018-Feb-17 14:29N 26°05' W 080°07'0 0.0
2018-Feb-17 13:59N 26°05' W 080°07'0 0.0
2018-Feb-17 13:29N 26°05' W 080°07'0 0.0
2018-Feb-17 12:59N 26°05' W 080°07'0 0.0
2018-Feb-17 12:29N 26°05' W 080°07'0 0.0
2018-Feb-17 11:59N 26°05' W 080°07'0 0.0
2018-Feb-17 11:29N 26°05' W 080°07'0 0.0
2018-Feb-17 10:59N 26°05' W 080°07'0 0.0
2018-Feb-17 10:29N 26°05' W 080°07'1 1.4
2018-Feb-17 10:00N 26°06' W 080°07'4 7.6
2018-Feb-17 09:30N 26°05' W 080°03'612.4
2018-Feb-17 09:00N 26°01' W 079°58'713.8
2018-Feb-17 08:30N 25°55' W 079°53'714.1
2018-Feb-17 08:00N 25°49' W 079°51'815.1
2018-Feb-17 07:30N 25°41' W 079°51'816.4
2018-Feb-17 07:00N 25°33' W 079°52'49215.4
2018-Feb-15 23:00N 20°35' W 086°57'612.8
2018-Feb-15 22:31N 20°29' W 086°59'0 0.8
2018-Feb-15 22:00N 20°29' W 086°59'0 0.0
2018-Feb-15 21:31N 20°29' W 086°59'0 0.0
2018-Feb-15 20:57N 20°29' W 086°59'0 0.0
2018-Feb-15 20:30N 20°29' W 086°59'0 0.0
2018-Feb-15 20:01N 20°29' W 086°59'0 0.0
2018-Feb-15 19:24N 20°29' W 086°59'0 0.0
2018-Feb-15 19:01N 20°29' W 086°59'0 0.0
2018-Feb-15 18:30N 20°29' W 086°59'0 0.0
2018-Feb-15 17:57N 20°29' W 086°59'0 0.0
2018-Feb-15 17:27N 20°29' W 086°59'0 0.0
2018-Feb-15 17:00N 20°29' W 086°59'0 0.0
2018-Feb-15 16:27N 20°29' W 086°59'0 0.0
2018-Feb-15 16:00N 20°29' W 086°59'0 0.0
2018-Feb-15 15:30N 20°29' W 086°59'0 0.0
2018-Feb-15 15:00N 20°29' W 086°59'0 0.0
2018-Feb-15 14:30N 20°29' W 086°59'0 0.0
2018-Feb-15 13:54N 20°29' W 086°59'0 0.0
2018-Feb-15 13:31N 20°29' W 086°59'0 0.0
2018-Feb-15 12:58N 20°29' W 086°59'0 0.0
2018-Feb-15 12:30N 20°29' W 086°59'0 0.1
2018-Feb-15 11:59N 20°29' W 086°59'2 4.7
2018-Feb-15 11:30N 20°29' W 087°01'5 9.8
2018-Feb-15 10:59N 20°24' W 087°03'18 9.1
2018-Feb-15 09:00N 20°06' W 087°00'95 4.0 090 / 271020.010.8 25.025.025.0
2018-Feb-14 09:00N 18°54' W 085°54'   070 / 211021.010.8 25.025.026.0
Track history (hours):
 
Tides and Currents Weather Stations Pressure Air Temp Water Temp Dewpoint Dewpoint Depression Visibility Wind Speed Wind Dir Waves Ship Positions

Freedom of the Seas

Last reported at 2018-Feb-23 10:00 UTC. Time now 2018-Feb-23 22:08 UTC.
Position N 20°06' W 071°06'.

Length 339 m; draft 9 m.

Type: Passenger vessel. MMSI: 309906000.

Wind from 090 at 22 knots

Barometer 1021.0 mb
Air temperature 25.0 ° C
Visibility: greater than 10.8 NM
Dewpoint 25.0 ° C
Water temperature 25.0 ° C

Date/timePositionNaut miles runAvg speedWind from/ knotsBaromVisibWave heightAir tempDewpointWater temp
2018-Feb-23 10:00N 20°06' W 071°06'45113.1 090 / 221021.010.8 25.025.025.0
2018-Feb-21 23:32N 18°02' W 063°27'116.0
2018-Feb-21 23:29N 18°02' W 063°26'1115.8
2018-Feb-21 22:48N 18°01' W 063°15'715.9
2018-Feb-21 22:23N 18°00' W 063°08'512.3
2018-Feb-21 21:59N 18°01' W 063°03'0 0.1
2018-Feb-21 21:20N 18°01' W 063°03'0 0.0
2018-Feb-21 20:53N 18°01' W 063°03'0 0.0
2018-Feb-21 19:50N 18°01' W 063°03'0 0.0
2018-Feb-21 19:20N 18°01' W 063°03'0 0.0
2018-Feb-21 18:53N 18°01' W 063°03'0 0.0
2018-Feb-21 18:08N 18°01' W 063°03'0 0.0
2018-Feb-21 17:41N 18°01' W 063°03'0 0.0
2018-Feb-21 17:20N 18°01' W 063°03'0 0.0
2018-Feb-21 16:56N 18°01' W 063°03'0 0.0
2018-Feb-21 16:08N 18°01' W 063°03'0 0.0
2018-Feb-21 15:44N 18°01' W 063°03'0 0.0
2018-Feb-21 15:29N 18°01' W 063°03'0 0.0
2018-Feb-21 14:56N 18°01' W 063°03'0 0.0
2018-Feb-21 13:41N 18°01' W 063°03'0 0.0
2018-Feb-21 13:29N 18°01' W 063°03'0 0.0
2018-Feb-21 12:59N 18°01' W 063°03'0 0.0
2018-Feb-21 12:26N 18°01' W 063°03'0 0.2
2018-Feb-21 11:53N 18°01' W 063°03'1 3.0
2018-Feb-21 11:27N 18°00' W 063°04'4 6.8
2018-Feb-21 10:53N 17°57' W 063°06'3 8.6
2018-Feb-21 10:30N 17°54' W 063°06'5 8.5
2018-Feb-21 09:58N 17°49' W 063°06'4 8.5
2018-Feb-21 09:29N 17°45' W 063°06'1020.8
2018-Feb-21 09:00N 17°36' W 063°00'71619.9 070 / 321020.010.8 24.024.024.0
2018-Feb-21 08:59N 17°41' W 063°05'5 8.6
2018-Feb-21 08:27N 17°36' W 063°05'4 9.1
2018-Feb-21 07:59N 17°32' W 063°05'30 4.4
2018-Feb-21 01:09N 17°04' W 062°52'24 1.8
2018-Feb-20 11:50N 17°27' W 063°02'617.5
2018-Feb-20 11:30N 17°32' W 063°05'1217.2
2018-Feb-20 10:47N 17°42' W 063°13'617.9
2018-Feb-20 10:28N 17°47' W 063°16'917.8
2018-Feb-20 09:59N 17°54' W 063°21'817.8
2018-Feb-20 09:30N 18°00' W 063°27'917.5
2018-Feb-20 09:00N 18°07' W 063°33'39716.5
2018-Feb-19 09:00N 21°48' W 069°24'47418.9 070 / 241021.010.8 24.024.024.0
2018-Feb-18 08:00N 25°42' W 076°54'14920.4 050 / 81023.010.8 23.023.023.0
2018-Feb-18 00:40N 26°11' W 079°36'320.1
2018-Feb-18 00:30N 26°11' W 079°40'1020.2
2018-Feb-18 00:00N 26°09' W 079°51'918.3
2018-Feb-17 23:30N 26°07' W 080°01'510.4
2018-Feb-17 23:00N 26°06' W 080°07'1 1.3
2018-Feb-17 22:29N 26°05' W 080°07'0 0.0
2018-Feb-17 21:59N 26°05' W 080°07'0 0.0
2018-Feb-17 21:29N 26°05' W 080°07'0 0.0
2018-Feb-17 20:59N 26°05' W 080°07'0 0.0
2018-Feb-17 20:29N 26°05' W 080°07'0 0.0
2018-Feb-17 19:59N 26°05' W 080°07'0 0.0
2018-Feb-17 19:29N 26°05' W 080°07'0 0.0
2018-Feb-17 18:59N 26°05' W 080°07'0 0.0
2018-Feb-17 18:29N 26°05' W 080°07'0 0.0
2018-Feb-17 17:59N 26°05' W 080°07'0 0.0
2018-Feb-17 17:29N 26°05' W 080°07'0 0.0
2018-Feb-17 16:59N 26°05' W 080°07'0 0.0
2018-Feb-17 16:29N 26°05' W 080°07'0 0.0
2018-Feb-17 15:59N 26°05' W 080°07'0 0.0
2018-Feb-17 15:29N 26°05' W 080°07'0 0.0
2018-Feb-17 14:59N 26°05' W 080°07'0 0.0
2018-Feb-17 14:29N 26°05' W 080°07'0 0.0
2018-Feb-17 13:59N 26°05' W 080°07'0 0.0
2018-Feb-17 13:29N 26°05' W 080°07'0 0.0
2018-Feb-17 12:59N 26°05' W 080°07'0 0.0
2018-Feb-17 12:29N 26°05' W 080°07'0 0.0
2018-Feb-17 11:59N 26°05' W 080°07'0 0.0
2018-Feb-17 11:29N 26°05' W 080°07'0 0.0
2018-Feb-17 10:59N 26°05' W 080°07'0 0.0
2018-Feb-17 10:29N 26°05' W 080°07'1 1.4
2018-Feb-17 10:00N 26°06' W 080°07'4 7.6
2018-Feb-17 09:30N 26°05' W 080°03'612.4
2018-Feb-17 09:00N 26°01' W 079°58'713.8
2018-Feb-17 08:30N 25°55' W 079°53'714.1
2018-Feb-17 08:00N 25°49' W 079°51'815.1
2018-Feb-17 07:30N 25°41' W 079°51'816.4
2018-Feb-17 07:00N 25°33' W 079°52'49215.4
2018-Feb-15 23:00N 20°35' W 086°57'612.8
2018-Feb-15 22:31N 20°29' W 086°59'0 0.8
2018-Feb-15 22:00N 20°29' W 086°59'0 0.0
2018-Feb-15 21:31N 20°29' W 086°59'0 0.0
2018-Feb-15 20:57N 20°29' W 086°59'0 0.0
2018-Feb-15 20:30N 20°29' W 086°59'0 0.0
2018-Feb-15 20:01N 20°29' W 086°59'0 0.0
2018-Feb-15 19:24N 20°29' W 086°59'0 0.0
2018-Feb-15 19:01N 20°29' W 086°59'0 0.0
2018-Feb-15 18:30N 20°29' W 086°59'0 0.0
2018-Feb-15 17:57N 20°29' W 086°59'0 0.0
2018-Feb-15 17:27N 20°29' W 086°59'0 0.0
2018-Feb-15 17:00N 20°29' W 086°59'0 0.0
2018-Feb-15 16:27N 20°29' W 086°59'0 0.0
2018-Feb-15 16:00N 20°29' W 086°59'0 0.0
2018-Feb-15 15:30N 20°29' W 086°59'0 0.0
2018-Feb-15 15:00N 20°29' W 086°59'0 0.0
2018-Feb-15 14:30N 20°29' W 086°59'0 0.0
2018-Feb-15 13:54N 20°29' W 086°59'0 0.0
2018-Feb-15 13:31N 20°29' W 086°59'0 0.0
2018-Feb-15 12:58N 20°29' W 086°59'0 0.0
2018-Feb-15 12:30N 20°29' W 086°59'0 0.1
2018-Feb-15 11:59N 20°29' W 086°59'2 4.7
2018-Feb-15 11:30N 20°29' W 087°01'5 9.8
2018-Feb-15 10:59N 20°24' W 087°03'18 9.1
2018-Feb-15 09:00N 20°06' W 087°00'95 4.0 090 / 271020.010.8 25.025.025.0
2018-Feb-14 09:00N 18°54' W 085°54'   070 / 211021.010.8 25.025.026.0

Dump ship's entire track history